createdAt,value
2023-02-22T00:01:50.985Z,5.50
2023-02-22T00:04:21.359Z,4.93
2023-02-22T00:06:49.676Z,5.32
2023-02-22T00:09:21.449Z,5.90
2023-02-22T00:11:48.965Z,5.22
2023-02-22T00:14:15.818Z,6.15
2023-02-22T00:16:42.461Z,5.78
2023-02-22T00:19:10.667Z,5.57
2023-02-22T00:21:37.440Z,5.78
2023-02-22T00:24:22.907Z,5.93
2023-02-22T00:26:57.270Z,5.43
2023-02-22T00:29:24.906Z,4.97
2023-02-22T00:31:51.584Z,5.80
2023-02-22T00:34:18.153Z,5.72
2023-02-22T00:36:49.113Z,5.97
2023-02-22T00:39:16.336Z,6.00
2023-02-22T00:41:43.400Z,3.63
2023-02-22T00:44:10.091Z,3.67
2023-02-22T00:46:36.661Z,3.20
2023-02-22T00:49:03.720Z,2.80
2023-02-22T00:51:30.335Z,2.97
2023-02-22T00:53:56.922Z,2.50
2023-02-22T00:56:23.870Z,2.72
2023-02-22T00:58:50.417Z,2.67
2023-02-22T01:01:17.358Z,3.15
2023-02-22T01:03:44.126Z,2.45
2023-02-22T01:06:11.070Z,2.75
2023-02-22T01:08:37.635Z,2.75
2023-02-22T01:11:04.567Z,3.25
2023-02-22T01:13:31.102Z,2.83
2023-02-22T01:15:57.871Z,3.05
2023-02-22T01:18:26.133Z,3.33
2023-02-22T01:20:52.862Z,2.97
2023-02-22T01:23:20.012Z,2.80
2023-02-22T01:25:46.570Z,3.63
2023-02-22T01:28:13.910Z,3.03
2023-02-22T01:30:40.749Z,2.58
2023-02-22T01:33:07.972Z,2.25
2023-02-22T01:35:37.020Z,2.78
2023-02-22T01:38:03.584Z,2.80
2023-02-22T01:40:35.998Z,2.80
2023-02-22T01:43:25.032Z,2.90
2023-02-22T01:46:00.858Z,2.60
2023-02-22T01:48:49.444Z,3.13
2023-02-22T01:51:19.693Z,3.53
2023-02-22T01:54:04.233Z,3.40
2023-02-22T01:56:34.476Z,2.67
2023-02-22T01:59:08.170Z,2.90
2023-02-22T02:01:36.528Z,2.67
2023-02-22T02:04:07.800Z,3.03
2023-02-22T02:06:35.988Z,2.97
2023-02-22T02:09:02.492Z,3.03
2023-02-22T02:11:29.689Z,2.83
2023-02-22T02:13:59.802Z,2.78
2023-02-22T02:16:37.262Z,3.10
2023-02-22T02:19:05.564Z,2.97
2023-02-22T02:21:51.806Z,2.95
2023-02-22T02:24:45.554Z,3.08
2023-02-22T02:27:19.392Z,3.03
2023-02-22T02:30:29.499Z,3.40
2023-02-22T02:33:22.454Z,3.45
2023-02-22T02:35:54.245Z,3.85
2023-02-22T02:38:32.272Z,2.58
2023-02-22T02:41:04.075Z,2.80
2023-02-22T02:43:40.509Z,3.00
2023-02-22T02:46:23.932Z,2.83
2023-02-22T02:48:56.862Z,3.30
2023-02-22T02:51:28.113Z,3.30
2023-02-22T02:53:55.889Z,2.75
2023-02-22T02:56:23.553Z,3.38
2023-02-22T02:58:53.436Z,3.35
2023-02-22T03:01:43.274Z,2.90
2023-02-22T03:04:28.169Z,2.85
2023-02-22T03:07:09.857Z,3.00
2023-02-22T03:09:59.583Z,3.22
2023-02-22T03:12:44.142Z,2.50
2023-02-22T03:15:14.033Z,2.97
2023-02-22T03:17:51.086Z,3.00
2023-02-22T03:20:23.804Z,2.67
2023-02-22T03:23:07.783Z,2.92
2023-02-22T03:25:40.433Z,2.63
2023-02-22T03:28:14.726Z,3.00
2023-02-22T03:30:48.572Z,2.30
2023-02-22T03:33:20.896Z,3.33
2023-02-22T03:35:57.012Z,3.22
2023-02-22T03:38:28.875Z,3.05
2023-02-22T03:40:59.448Z,3.53
2023-02-22T03:43:32.896Z,3.15
2023-02-22T03:46:00.819Z,3.67
2023-02-22T03:48:46.180Z,3.90
2023-02-22T03:53:50.540Z,3.75
2023-02-22T03:56:24.523Z,3.13
2023-02-22T03:58:54.475Z,3.13
2023-02-22T04:01:28.713Z,3.40
2023-02-22T04:03:55.279Z,3.20
2023-02-22T04:06:21.990Z,3.10
2023-02-22T04:08:48.492Z,2.90
2023-02-22T04:11:15.230Z,3.22
2023-02-22T04:13:41.938Z,2.83
2023-02-22T04:16:08.594Z,3.15
2023-02-22T04:18:35.250Z,3.15
2023-02-22T04:21:02.644Z,3.25
2023-02-22T04:23:30.744Z,3.33
2023-02-22T04:25:57.537Z,3.72
2023-02-22T04:28:24.031Z,4.57
2023-02-22T04:30:50.650Z,3.30
2023-02-22T04:33:17.379Z,3.35
2023-02-22T04:35:44.096Z,4.10
2023-02-22T04:38:10.754Z,4.10
2023-02-22T04:40:37.511Z,4.10
2023-02-22T04:43:04.110Z,4.47
2023-02-22T04:45:31.087Z,4.57
2023-02-22T04:47:57.835Z,4.18
2023-02-22T04:50:24.636Z,4.60
2023-02-22T04:52:51.303Z,4.88
2023-02-22T04:55:17.933Z,5.53
2023-02-22T04:57:44.497Z,4.00
2023-02-22T05:00:11.633Z,4.30
2023-02-22T05:02:40.134Z,4.78
2023-02-22T05:05:07.306Z,4.18
2023-02-22T05:07:33.910Z,4.68
2023-02-22T05:10:02.976Z,4.35
2023-02-22T05:12:29.513Z,4.80
2023-02-22T05:14:57.540Z,4.57
2023-02-22T05:17:24.172Z,3.92
2023-02-22T05:19:50.997Z,3.88
2023-02-22T05:22:18.015Z,3.97
2023-02-22T05:24:47.211Z,3.53
2023-02-22T05:27:13.850Z,3.75
2023-02-22T05:29:40.736Z,3.97
2023-02-22T05:32:07.358Z,4.43
2023-02-22T05:34:33.989Z,4.88
2023-02-22T05:37:00.583Z,5.07
2023-02-22T05:39:27.152Z,5.25
2023-02-22T05:41:53.756Z,5.15
2023-02-22T05:44:20.353Z,5.70
2023-02-22T05:46:47.065Z,6.03
2023-02-22T05:49:13.723Z,6.72
2023-02-22T05:51:40.330Z,6.65
2023-02-22T05:54:07.108Z,7.25
2023-02-22T05:56:33.830Z,6.95
2023-02-22T05:59:00.464Z,6.95
2023-02-22T06:01:27.268Z,6.55
2023-02-22T06:03:54.143Z,6.70
2023-02-22T06:06:22.432Z,7.20
2023-02-22T06:08:49.362Z,8.65
2023-02-22T06:11:16.329Z,7.55
2023-02-22T06:13:48.873Z,6.88
2023-02-22T06:16:15.435Z,7.57
2023-02-22T06:18:41.960Z,8.05
2023-02-22T06:21:09.005Z,6.60
2023-02-22T06:23:35.641Z,6.72
2023-02-22T06:26:02.194Z,7.45
2023-02-22T06:28:28.725Z,7.63
2023-02-22T06:30:55.294Z,7.70
2023-02-22T06:33:21.947Z,7.10
2023-02-22T06:35:48.485Z,7.28
2023-02-22T06:38:23.281Z,8.15
2023-02-22T06:40:49.910Z,7.72
2023-02-22T06:43:16.941Z,7.93
2023-02-22T06:45:43.886Z,7.97
2023-02-22T06:48:10.510Z,8.95
2023-02-22T06:50:37.129Z,8.40
2023-02-22T06:53:04.059Z,8.95
2023-02-22T06:55:33.729Z,9.25
2023-02-22T06:58:00.660Z,8.57
2023-02-22T07:00:29.125Z,8.60
2023-02-22T07:02:56.654Z,8.48
2023-02-22T07:05:24.621Z,8.57
2023-02-22T07:07:53.275Z,8.77
2023-02-22T07:10:26.349Z,8.50
2023-02-22T07:12:53.516Z,8.43
2023-02-22T07:15:23.784Z,9.20
2023-02-22T07:17:51.867Z,8.55
2023-02-22T07:20:20.779Z,9.38
2023-02-22T07:22:49.013Z,9.82
2023-02-22T07:25:18.866Z,9.10
2023-02-22T07:27:46.412Z,9.82
2023-02-22T07:30:16.400Z,9.32
2023-02-22T07:32:44.056Z,9.70
2023-02-22T07:35:16.902Z,8.52
2023-02-22T07:37:44.201Z,8.85
2023-02-22T07:40:11.636Z,9.18
2023-02-22T07:43:01.317Z,8.88
2023-02-22T07:45:35.885Z,9.10
2023-02-22T07:48:04.624Z,9.45
2023-02-22T07:50:32.953Z,9.50
2023-02-22T07:53:04.237Z,8.38
2023-02-22T07:55:32.664Z,8.73
2023-02-22T07:58:01.397Z,7.85
2023-02-22T08:00:36.636Z,8.23
2023-02-22T08:03:06.271Z,7.43
2023-02-22T08:05:36.172Z,8.15
2023-02-22T08:08:03.773Z,8.25
2023-02-22T08:10:31.026Z,8.85
2023-02-22T08:12:57.715Z,8.10
2023-02-22T08:15:35.918Z,8.27
2023-02-22T08:18:04.737Z,7.85
2023-02-22T08:20:31.911Z,7.78
2023-02-22T08:23:00.813Z,7.05
2023-02-22T08:25:28.736Z,6.43
2023-02-22T08:28:04.793Z,6.07
2023-02-22T08:30:32.847Z,7.82
2023-02-22T08:33:00.006Z,7.95
2023-02-22T08:35:27.694Z,6.55
2023-02-22T08:38:01.881Z,6.10
2023-02-22T08:40:31.372Z,6.85
2023-02-22T08:42:58.316Z,5.78
2023-02-22T08:45:25.233Z,6.10
2023-02-22T08:47:51.929Z,5.15
2023-02-22T08:50:25.305Z,5.43
2023-02-22T08:52:54.832Z,5.75
2023-02-22T08:55:23.333Z,7.00
2023-02-22T08:57:53.558Z,8.15
2023-02-22T09:00:27.475Z,8.85
2023-02-22T09:02:54.071Z,6.10
2023-02-22T09:05:21.426Z,7.03
2023-02-22T09:07:48.020Z,5.88
2023-02-22T09:10:17.778Z,5.82
2023-02-22T09:12:44.430Z,5.80
2023-02-22T09:15:12.534Z,5.65
2023-02-22T09:17:39.492Z,4.97
2023-02-22T09:20:08.121Z,5.55
2023-02-22T09:22:34.815Z,4.72
2023-02-22T09:25:11.454Z,4.45
2023-02-22T09:27:43.734Z,5.13
2023-02-22T09:30:23.743Z,5.82
2023-02-22T09:32:52.338Z,5.07
2023-02-22T09:35:19.954Z,5.10
2023-02-22T09:37:47.997Z,3.92
2023-02-22T09:40:24.872Z,4.45
2023-02-22T09:43:04.032Z,3.78
2023-02-22T09:45:48.429Z,4.47
2023-02-22T09:48:21.976Z,3.60
2023-02-22T09:50:52.458Z,4.05
2023-02-22T09:53:42.423Z,3.58
2023-02-22T09:56:12.814Z,3.42
2023-02-22T09:58:46.353Z,3.70
2023-02-22T10:01:43.469Z,3.40
2023-02-22T10:04:19.107Z,2.70
2023-02-22T10:07:14.309Z,3.00
2023-02-22T10:09:43.549Z,4.45
2023-02-22T10:12:44.130Z,4.40
2023-02-22T10:15:13.689Z,4.80
2023-02-22T10:17:52.517Z,4.90
2023-02-22T10:20:32.947Z,4.55
2023-02-22T10:23:19.162Z,4.43
2023-02-22T10:25:54.315Z,4.57
2023-02-22T10:28:32.186Z,4.97
2023-02-22T10:31:04.375Z,4.10
2023-02-22T10:33:39.907Z,4.47
2023-02-22T10:36:15.146Z,4.03
2023-02-22T10:38:52.250Z,4.72
2023-02-22T10:41:28.587Z,4.00
2023-02-22T10:43:56.135Z,4.28
2023-02-22T10:46:25.343Z,4.13
2023-02-22T10:48:55.315Z,3.65
2023-02-22T10:51:22.061Z,4.20
2023-02-22T10:54:07.273Z,4.55
2023-02-22T10:59:04.503Z,3.08
2023-02-22T11:01:31.038Z,3.92
2023-02-22T11:04:25.160Z,3.05
2023-02-22T11:07:01.009Z,4.65
2023-02-22T11:09:29.087Z,3.17
2023-02-22T11:12:17.640Z,2.35
2023-02-22T11:14:44.187Z,3.35
2023-02-22T11:17:14.220Z,2.30
2023-02-22T11:19:48.127Z,2.60
2023-02-22T11:22:22.726Z,2.97
2023-02-22T11:24:57.617Z,3.30
2023-02-22T11:27:47.639Z,2.92
2023-02-22T11:30:27.533Z,2.90
2023-02-22T11:33:15.455Z,3.30
2023-02-22T11:36:04.881Z,2.63
2023-02-22T11:38:55.275Z,2.30
2023-02-22T11:41:30.540Z,2.35
2023-02-22T11:44:26.586Z,2.63
2023-02-22T11:46:56.391Z,2.95
2023-02-22T11:49:35.375Z,2.28
2023-02-22T11:52:20.502Z,2.47
2023-02-22T11:57:22.105Z,1.90
2023-02-22T12:00:24.732Z,2.13
2023-02-22T12:03:33.060Z,2.15
2023-02-22T12:06:30.836Z,2.28
2023-02-22T12:09:10.423Z,2.38
2023-02-22T12:11:50.944Z,1.88
2023-02-22T12:14:44.159Z,2.30
2023-02-22T12:17:23.498Z,2.17
2023-02-22T12:19:54.927Z,2.03
2023-02-22T12:22:27.167Z,3.85
2023-02-22T12:25:09.532Z,2.58
2023-02-22T12:27:52.133Z,2.67
2023-02-22T12:30:24.781Z,3.00
2023-02-22T12:32:54.210Z,2.22
2023-02-22T12:35:27.547Z,2.65
2023-02-22T12:38:09.076Z,3.00
2023-02-22T12:41:04.065Z,3.35
2023-02-22T12:43:39.051Z,3.33
2023-02-22T12:46:12.350Z,3.55
2023-02-22T12:48:57.173Z,6.28
2023-02-22T12:51:53.869Z,4.47
2023-02-22T12:55:02.413Z,2.90
2023-02-22T12:57:34.677Z,4.05
2023-02-22T13:00:20.271Z,9.55
2023-02-22T13:02:58.460Z,3.63
2023-02-22T13:05:25.318Z,3.00
2023-02-22T13:08:20.313Z,3.17
2023-02-22T13:10:59.213Z,3.33
2023-02-22T13:13:37.957Z,2.97
2023-02-22T13:16:18.514Z,3.10
2023-02-22T13:19:20.624Z,3.05
2023-02-22T13:21:59.785Z,2.50
2023-02-22T13:24:32.911Z,3.78
2023-02-22T13:27:09.968Z,3.85
2023-02-22T13:29:43.852Z,2.92
2023-02-22T13:32:22.655Z,2.80
2023-02-22T13:34:52.374Z,2.95
2023-02-22T13:37:37.446Z,2.30
2023-02-22T13:40:33.137Z,3.15
2023-02-22T13:43:22.770Z,2.70
2023-02-22T13:45:59.758Z,2.90
2023-02-22T13:48:28.009Z,2.65
2023-02-22T13:51:06.991Z,2.60
2023-02-22T13:53:54.384Z,2.28
2023-02-22T13:56:23.648Z,2.65
2023-02-22T13:58:57.035Z,2.72
2023-02-22T14:01:41.948Z,2.72
2023-02-22T14:04:28.630Z,2.95
2023-02-22T14:07:00.923Z,1.85
2023-02-22T14:09:45.739Z,2.80
2023-02-22T14:12:30.792Z,2.45
2023-02-22T14:15:28.288Z,3.88
2023-02-22T14:18:02.918Z,2.65
2023-02-22T14:20:35.266Z,3.20
2023-02-22T14:23:30.017Z,3.28
2023-02-22T14:26:08.955Z,3.73
2023-02-22T14:28:40.952Z,5.28
2023-02-22T14:31:25.750Z,21.30
2023-02-22T14:34:03.174Z,6.20
2023-02-22T14:36:41.735Z,5.28
2023-02-22T14:39:19.975Z,10.57
2023-02-22T14:42:10.505Z,4.60
2023-02-22T14:44:59.866Z,3.00
2023-02-22T14:47:43.880Z,3.05
2023-02-22T14:50:25.338Z,3.45
2023-02-22T14:53:06.954Z,3.53
2023-02-22T14:55:40.937Z,3.15
2023-02-22T14:58:22.287Z,3.42
2023-02-22T15:00:53.062Z,3.47
2023-02-22T15:03:33.328Z,2.70
2023-02-22T15:06:39.413Z,2.90
2023-02-22T15:09:29.777Z,3.53
2023-02-22T15:12:03.142Z,3.13
2023-02-22T15:14:41.164Z,3.55
2023-02-22T15:17:13.668Z,4.07
2023-02-22T15:19:42.319Z,3.58
2023-02-22T15:22:21.918Z,3.47
2023-02-22T15:24:58.927Z,3.85
2023-02-22T15:27:26.403Z,3.63
2023-02-22T15:29:59.491Z,3.17
2023-02-22T15:32:31.523Z,3.10
2023-02-22T15:35:19.175Z,3.30
2023-02-22T15:37:47.393Z,4.07
2023-02-22T15:40:20.996Z,3.20
2023-02-22T15:42:58.520Z,3.50
2023-02-22T15:45:26.127Z,3.88
2023-02-22T15:47:54.991Z,3.65
2023-02-22T15:50:33.759Z,3.58
2023-02-22T15:53:24.067Z,3.40
2023-02-22T15:55:58.217Z,3.78
2023-02-22T15:58:29.239Z,3.50
2023-02-22T16:01:05.362Z,3.97
2023-02-22T16:03:46.355Z,3.78
2023-02-22T16:06:28.636Z,4.43
2023-02-22T16:08:58.832Z,4.85
2023-02-22T16:11:34.339Z,5.13
2023-02-22T16:14:06.105Z,5.00
2023-02-22T16:16:41.813Z,4.80
2023-02-22T16:19:17.745Z,3.83
2023-02-22T16:22:02.951Z,4.70
2023-02-22T16:27:12.768Z,4.45
2023-02-22T16:29:40.501Z,4.32
2023-02-22T16:32:07.566Z,4.68
2023-02-22T16:34:34.846Z,4.28
2023-02-22T16:37:01.580Z,5.32
2023-02-22T16:39:30.695Z,5.15
2023-02-22T16:41:59.976Z,4.97
2023-02-22T16:44:28.113Z,4.85
2023-02-22T16:46:59.748Z,4.82
2023-02-22T16:49:26.998Z,6.20
2023-02-22T16:51:56.210Z,5.03
2023-02-22T16:54:29.736Z,4.47
2023-02-22T16:57:00.449Z,4.50
2023-02-22T16:59:26.976Z,4.25
2023-02-22T17:01:53.780Z,4.78
2023-02-22T17:04:24.279Z,4.40
2023-02-22T17:06:50.877Z,4.03
2023-02-22T17:09:20.030Z,4.65
2023-02-22T17:11:50.205Z,5.13
2023-02-22T17:14:20.319Z,4.60
2023-02-22T17:16:47.254Z,5.25
2023-02-22T17:19:19.551Z,5.53
2023-02-22T17:21:46.314Z,6.10
2023-02-22T17:24:16.379Z,6.45
2023-02-22T17:26:43.240Z,6.43
2023-02-22T17:29:09.837Z,6.93
2023-02-22T17:31:36.847Z,11.75
2023-02-22T17:34:05.607Z,7.32
2023-02-22T17:36:34.079Z,8.15
2023-02-22T17:39:03.150Z,7.65
2023-02-22T17:41:29.730Z,7.47
2023-02-22T17:44:00.987Z,7.20
2023-02-22T17:46:27.673Z,7.53
2023-02-22T17:48:54.326Z,7.80
2023-02-22T17:51:23.345Z,6.75
2023-02-22T17:53:51.319Z,8.25
2023-02-22T17:56:19.850Z,7.47
2023-02-22T17:58:53.132Z,7.93
2023-02-22T18:01:27.241Z,8.75
2023-02-22T18:03:56.186Z,8.43
2023-02-22T18:06:27.352Z,8.70
2023-02-22T18:08:56.648Z,8.48
2023-02-22T18:11:26.435Z,9.10
2023-02-22T18:13:55.461Z,8.95
2023-02-22T18:16:22.603Z,9.52
2023-02-22T18:18:49.757Z,9.48
2023-02-22T18:21:16.473Z,9.20
2023-02-22T18:23:44.996Z,9.05
2023-02-22T18:26:20.482Z,9.63
2023-02-22T18:28:50.427Z,9.95
2023-02-22T18:31:19.498Z,10.30
2023-02-22T18:33:48.971Z,10.20
2023-02-22T18:36:17.894Z,10.73
2023-02-22T18:38:44.959Z,10.43
2023-02-22T18:41:16.591Z,9.90
2023-02-22T18:43:43.794Z,11.20
2023-02-22T18:46:11.831Z,11.50
2023-02-22T18:48:39.393Z,10.05
2023-02-22T18:51:11.085Z,10.68
2023-02-22T18:53:40.907Z,10.02
2023-02-22T18:56:10.621Z,13.05
2023-02-22T18:58:38.935Z,9.95
2023-02-22T19:01:07.238Z,10.27
2023-02-22T19:03:38.218Z,10.95
2023-02-22T19:06:08.843Z,10.23
2023-02-22T19:08:40.207Z,10.32
2023-02-22T19:11:09.444Z,11.13
2023-02-22T19:13:37.130Z,11.77
2023-02-22T19:16:05.214Z,11.02
2023-02-22T19:18:31.970Z,11.13
2023-02-22T19:21:00.795Z,11.73
2023-02-22T19:23:29.525Z,10.90
2023-02-22T19:25:56.918Z,10.27
2023-02-22T19:28:28.217Z,9.68
2023-02-22T19:30:54.873Z,9.85
2023-02-22T19:33:26.091Z,10.80
2023-02-22T19:35:52.672Z,11.68
2023-02-22T19:38:19.854Z,11.40
2023-02-22T19:40:46.721Z,12.00
2023-02-22T19:43:14.273Z,11.38
2023-02-22T19:45:41.050Z,11.57
2023-02-22T19:48:07.651Z,10.10
2023-02-22T19:50:35.258Z,11.45
2023-02-22T19:53:01.922Z,11.85
2023-02-22T19:55:32.380Z,11.48
2023-02-22T19:57:59.411Z,10.88
2023-02-22T20:00:27.167Z,11.05
2023-02-22T20:03:05.764Z,11.75
2023-02-22T20:05:33.936Z,10.48
2023-02-22T20:08:00.598Z,11.43
2023-02-22T20:10:27.269Z,10.98
2023-02-22T20:12:53.851Z,10.48
2023-02-22T20:15:23.946Z,10.60
2023-02-22T20:17:51.361Z,10.32
2023-02-22T20:20:18.459Z,11.63
2023-02-22T20:22:45.688Z,11.95
2023-02-22T20:25:13.774Z,11.70
2023-02-22T20:27:40.613Z,11.45
2023-02-22T20:30:09.957Z,11.02
2023-02-22T20:32:37.927Z,10.82
2023-02-22T20:35:06.058Z,11.10
2023-02-22T20:37:34.075Z,10.18
2023-02-22T20:40:00.707Z,10.73
2023-02-22T20:42:27.386Z,10.45
2023-02-22T20:44:54.518Z,10.77
2023-02-22T20:47:23.458Z,10.38
2023-02-22T20:49:50.129Z,10.93
2023-02-22T20:52:16.771Z,11.38
2023-02-22T20:54:45.986Z,11.68
2023-02-22T20:57:15.067Z,11.18
2023-02-22T20:59:43.871Z,11.55
2023-02-22T21:02:10.923Z,10.93
2023-02-22T21:04:39.087Z,10.75
2023-02-22T21:07:08.289Z,12.80
2023-02-22T21:09:35.004Z,12.27
2023-02-22T21:12:01.570Z,11.45
2023-02-22T21:14:29.563Z,11.07
2023-02-22T21:16:56.121Z,11.60
2023-02-22T21:19:25.770Z,11.40
2023-02-22T21:21:54.970Z,11.45
2023-02-22T21:24:23.631Z,11.52
2023-02-22T21:26:50.701Z,11.65
2023-02-22T21:29:17.299Z,11.30
2023-02-22T21:31:44.117Z,11.73
2023-02-22T21:34:13.769Z,11.38
2023-02-22T21:36:40.342Z,11.18
2023-02-22T21:39:18.133Z,10.98
2023-02-22T21:41:50.615Z,11.77
2023-02-22T21:44:17.875Z,12.55
2023-02-22T21:46:47.319Z,11.95
2023-02-22T21:49:13.867Z,11.70
2023-02-22T21:51:41.472Z,11.43
2023-02-22T21:54:10.380Z,10.73
2023-02-22T21:56:39.961Z,11.63
2023-02-22T21:59:18.867Z,11.43
2023-02-22T22:01:49.698Z,11.25
2023-02-22T22:04:21.131Z,9.82
2023-02-22T22:06:53.398Z,11.27
2023-02-22T22:09:23.555Z,10.80
2023-02-22T22:11:58.535Z,12.23
2023-02-22T22:16:56.032Z,12.23
2023-02-22T22:19:23.092Z,12.25
2023-02-22T22:21:53.343Z,13.27
2023-02-22T22:24:21.566Z,11.73
2023-02-22T22:26:54.813Z,13.30
2023-02-22T22:29:28.717Z,12.57
2023-02-22T22:31:55.579Z,13.48
2023-02-22T22:34:24.371Z,13.82
2023-02-22T22:36:51.074Z,12.40
2023-02-22T22:39:21.289Z,12.82
2023-02-22T22:41:48.530Z,12.82
2023-02-22T22:44:16.442Z,13.50
2023-02-22T22:46:43.882Z,13.80
2023-02-22T22:49:13.723Z,12.93
2023-02-22T22:51:47.497Z,11.85
2023-02-22T22:54:14.481Z,12.45
2023-02-22T22:56:41.122Z,12.25
2023-02-22T22:59:08.570Z,12.52
2023-02-22T23:01:44.944Z,11.75
2023-02-22T23:04:16.763Z,11.40
2023-02-22T23:06:45.744Z,11.45
2023-02-22T23:09:18.948Z,12.00
2023-02-22T23:12:08.743Z,11.73
2023-02-22T23:14:44.098Z,11.35
2023-02-22T23:17:15.408Z,10.25
2023-02-22T23:19:47.362Z,11.27
2023-02-22T23:22:14.502Z,11.48
2023-02-22T23:24:41.941Z,11.40
2023-02-22T23:27:12.397Z,11.40
2023-02-22T23:29:41.610Z,11.35
2023-02-22T23:32:09.034Z,11.48
2023-02-22T23:34:37.403Z,11.63
2023-02-22T23:37:04.024Z,10.70
2023-02-22T23:39:30.587Z,11.23
2023-02-22T23:42:26.828Z,13.25
2023-02-22T23:44:53.484Z,10.68
2023-02-22T23:47:20.014Z,11.60
2023-02-22T23:49:49.558Z,11.15
2023-02-22T23:52:24.112Z,11.18
2023-02-22T23:54:53.820Z,10.45
2023-02-22T23:57:20.694Z,11.15
2023-02-22T23:59:48.691Z,10.98
